Terminal Aerodrome Forecast
Issued by NWS Charleston, WV

Current Version | Previous Version | Text Only | Print | Product List | Glossary Off
Versions: 1 2 3 4 5 6 7 8 9 10 11 12 13 14 15 16 17 18 19 20 21

000
FTUS41 KRLX 272300 RRA
TAFHTS
TAF
KHTS 272341Z 2800/2824 28006KT 6SM -SHSN SCT025 OVC035
      TEMPO 2800/2802 4SM -SHSN BKN025
     FM280400 29007KT P6SM -SHSN BKN030
     FM280600 29006KT P6SM BKN035
     FM281500 23004KT P6SM SCT035 BKN120
     FM282000 19005KT P6SM BKN100=

USA.gov is the U.S. government's official web portal to all federal, state and local government web resources and services.